^^

Nearby METAR Reports

 

KFNL - Ft Collins/Lovel, Colorado, USA
Distance from station: N 2mi, 3km
Updated: 02/24/2024 9:56 pm
Clear
Clear
 Wind from WSW
Wind: WSW 10 mph , 17 km/h, Gust: 18 mph , 30 km/h
Temperature: 52°F , 11°C
Dew Point: 7°F , -14°C
Humidity: 16%
Barometer: 29.87 inHg , 1011.5 hPa
Clouds: Clear
Visibility: 10 miles , 16 km
2024/02/25 04:56 KFNL 250456Z AUTO 25009G16KT 10SM CLR 11/M14 A2987 RMK AO2 PK WND 26032/0401 SLP097 T01061139
KLMO - Longmont/Vbrand, Colorado, USA
Distance from station: SSW 19mi, 31km
Updated: 02/24/2024 9:55 pm
Clear
Clear
 Wind from SW
Wind: SW 7 mph , 11 km/h, Gust: 20 mph , 31 km/h
Temperature: 52°F , 11°C
Dew Point: 3°F , -16°C
Humidity: 13%
Barometer: 29.92 inHg , 1013.2 hPa
Clouds: Clear
Visibility: 10 miles , 16 km
2024/02/25 04:55 KLMO 250455Z AUTO 22006G17KT 10SM CLR 11/M16 A2992 RMK AO2 T01101156
 
KGXY - Greeley/Weld, Colorado, USA
Distance from station: E 21mi, 34km
Updated: 02/24/2024 9:56 pm
Clear
Clear
 Wind from WSW
Wind: WSW 17 mph , 28 km/h
Temperature: 52°F , 11°C
Dew Point: 10°F , -12°C
Humidity: 19%
Barometer: 29.89 inHg , 1012.2 hPa
Clouds: Clear
Visibility: 10 miles , 16 km
2024/02/25 04:56 KGXY 250456Z 24015KT 10SM CLR 11/M12 A2989 RMK AO2 PK WND 25029/0410 SLP125 T01061122
KEIK - Erie Muni, Colorado, USA
Distance from station: S 28mi, 45km
Updated: 02/24/2024 9:55 pm
Clear
Clear
 Wind from SW
Wind: SW 15 mph , 24 km/h, Gust: 21 mph , 33 km/h
Temperature: 52°F , 11°C
Dew Point: 1°F , -17°C
Humidity: 12%
Barometer: 29.91 inHg , 1012.9 hPa
Clouds: Clear
Visibility: 10 miles , 16 km
2024/02/25 04:55 KEIK 250455Z AUTO 22013G18KT 10SM CLR 11/M17 A2991 RMK AO2 T01111169
 
KBDU - Boulder Muni, Colorado, USA
Distance from station: SSW 29mi, 47km
Updated: 02/24/2024 9:55 pm
Clear
Clear
 Wind from WSW
Wind: WSW 7 mph , 11 km/h, Gust: 20 mph , 31 km/h
Temperature: 52°F , 11°C
Dew Point: 3°F , -16°C
Humidity: 13%
Barometer: 29.89 inHg , 1012.2 hPa
Clouds: Clear
Visibility: 10 miles , 16 km
2024/02/25 04:55 KBDU 250455Z AUTO 25006G17KT 212V352 10SM CLR 11/M16 A2989 RMK AO2
KBJC - Broomfield/Jeffc, Colorado, USA
Distance from station: S 36mi, 58km
Updated: 02/24/2024 9:45 pm
Few Clouds
Few Clouds
 Wind from calm
Wind: Calm
Temperature: 50°F , 10°C
Dew Point: -2°F , -19°C
Humidity: 11%
Barometer: 29.94 inHg , 1013.9 hPa
Clouds: Few Clouds
Visibility: 10 miles , 16 km
Cloud details: Few Clouds 20000 ft
2024/02/25 04:45 KBJC 250445Z 00000KT 10SM FEW200 10/M19 A2994
 
KDEN - Denver (dia), Colorado, USA
Distance from station: SSE 44mi, 70km
Updated: 02/24/2024 9:53 pm
Few Clouds
Few Clouds
 Wind from WSW
Wind: WSW 17 mph , 28 km/h
Temperature: 50°F , 10°C
Wind Chill: 44°F , 7°C
Dew Point: -0°F , -18°C
Humidity: 12%
Barometer: 29.92 inHg , 1013.2 hPa
Clouds: Few Clouds
Visibility: 10 miles , 16 km
Cloud details: Few Clouds 25000 ft
2024/02/25 04:53 KDEN 250453Z 24015KT 10SM FEW250 10/M18 A2992 RMK AO2 PK WND 24026/0357 SLP088 T01001178
KFEW - Warren Air Base, Wyoming, USA
Distance from station: N 50mi, 80km
Updated: 02/24/2024 9:55 pm
Clear
Clear
 Wind from W
Wind: W 35 mph , 56 km/h, Gust: 49 mph , 80 km/h
Temperature: 43°F , 6°C
Wind Chill: 32°F , 0°C
Dew Point: 9°F , -13°C
Humidity: 24%
Barometer: 29.85 inHg , 1010.8 hPa
Clouds: Clear
Visibility: 10 miles , 16 km
2024/02/25 04:55 KFEW 250455Z AUTO 27030G43KT 10SM CLR 06/M13 A2985 RMK AO2 PK WND 27043/48 SLP084 T00611135 $
 
KBKF - Buckley Angb/Den, Colorado, USA
Distance from station: SSE 50mi, 81km
Updated: 02/24/2024 9:58 pm
Few Clouds
Few Clouds
 Wind from SSW
Wind: SSW 10 mph , 17 km/h
Temperature: 43°F , 6°C
Wind Chill: 37°F , 3°C
Dew Point: 1°F , -17°C
Humidity: 17%
Barometer: 29.93 inHg , 1013.5 hPa
Clouds: Few Clouds
Visibility: 10 miles , 16 km
Cloud details: Few Clouds 22000 ft
2024/02/25 04:58 KBKF 250458Z 21009KT 10SM FEW220 06/M17 A2993 RMK AO2A SLP103 T00561169